This is the latest recevied weather packets stored in our database for station/object ALANSN-2. If no packets are shown the sender has not sent any weather packets the latest 10 day(s).
| Time | Temp. | Humidity | Pressure | Rain* | Wind** | Luminosity | Snow |
|---|---|---|---|---|---|---|---|
| 1787682420 | 25.56° C | 61% | 1029.4 hPa | 0 mm | - | 607 W/m² | - |
| 1787682119 | 25° C | 61% | 1029.5 hPa | 0 mm | - | 607 W/m² | - |
| 1787681820 | 25° C | 63% | 1029.5 hPa | 0 mm | - | 605 W/m² | - |
| 1787681519 | 23.89° C | 65% | 1029.5 hPa | 0 mm | - | 579 W/m² | - |
| 1787681220 | 23.89° C | 65% | 1029.7 hPa | 0 mm | - | 602 W/m² | - |
| 1787680920 | 23.89° C | 65% | 1029.7 hPa | 0 mm | - | 602 W/m² | - |
| 1787680620 | 23.33° C | 67% | 1029.7 hPa | 0 mm | - | 620 W/m² | - |
| 1787680320 | 23.89° C | 64% | 1029.8 hPa | 0 mm | - | 619 W/m² | - |
| 1787680020 | 23.89° C | 64% | 1029.8 hPa | 0 mm | - | 619 W/m² | - |
| 1787679720 | 23.89° C | 63% | 1029.9 hPa | 0 mm | - | 608 W/m² | - |
| 1787679421 | 25° C | 60% | 1030 hPa | 0 mm | - | 630 W/m² | - |
| 1787679120 | 25° C | 60% | 1030 hPa | 0 mm | - | 630 W/m² | - |
| 1787678820 | 25° C | 62% | 1030 hPa | 0 mm | - | 613 W/m² | - |
| 1787678519 | 23.33° C | 65% | 1030 hPa | 0 mm | - | 616 W/m² | - |
| 1787678220 | 23.33° C | 65% | 1030 hPa | 0 mm | - | 616 W/m² | - |
| 1787677920 | 23.89° C | 63% | 1030 hPa | 0 mm | - | 629 W/m² | - |
| 1787677620 | 24.44° C | 63% | 1030.2 hPa | 0 mm | - | 632 W/m² | - |
| 1787677320 | 24.44° C | 63% | 1030.2 hPa | 0 mm | - | 632 W/m² | - |
| 1787677019 | 25° C | 62% | 1030.4 hPa | 0 mm | - | 658 W/m² | - |
| 1787676720 | 22.78° C | 68% | 1030.3 hPa | 0 mm | - | 542 W/m² | - |
| 1787676420 | 22.78° C | 68% | 1030.3 hPa | 0 mm | - | 542 W/m² | - |
| 1787676120 | 22.22° C | 68% | 1030.4 hPa | 0 mm | - | 810 W/m² | - |
| 1787675820 | 22.22° C | 71% | 1030.5 hPa | 0 mm | - | 492 W/m² | - |
| 1787675519 | 22.22° C | 71% | 1030.5 hPa | 0 mm | - | 492 W/m² | - |
| 1787675220 | 21.67° C | 73% | 1030.4 hPa | 0 mm | - | 348 W/m² | - |
* Rain latest hour (hover to see other rain measurements)
** Current wind speed in m/s (hover to see current wind gust speed)